Terminal Aerodrome Forecast
Issued by NWS Charleston, WV

Current Version | Previous Version | Graphics & Text | Print | Product List | Glossary On
Versions: 1 2 3 4 5 6 7 8 9 10 11 12 13 14 15 16 17 18 19 20 21 22 23 24 25 26 27 28
043
FTUS41 KRLX 170900 AAC
TAFEKN
TAF AMD
KEKN 170900Z 1709/1806 00000KT 2SM -SHRA BR SCT001 OVC060
     FM171100 18005KT 3SM -SHRA OVC025
     FM171700 21010G16KT 5SM -SHRA BKN015
     FM180100 25009G15KT 6SM -SHRA OVC015=

USA.gov is the U.S. government's official web portal to all federal, state and local government web resources and services.